Knife River, Minnesota
Current Conditions -  °F | °C
As of 4:54 AM on Friday 28 Nov 2014 (Local Time) from KTWM Reporting Station
Light Snow Light Snow  
Wind Chill: 12°   Ceiling: 2200
Heat Index: 12°   Visibility: 2mi
Dew Point:   Wind: 0mph
Humidity: 73%   Direction: NA
Pressure: 30.1"   Gusts: NA
Location:  46.95°N, 91.78°W
Report Text: KTWM 281054Z AUTO 00000KT 2SM -SN SCT014 BKN022 OVC030 M11/M15 A3010 RMK AO2
Loading
Personal Weather Stations






























Interactive Weather Map New forecast layout! Learn more

10-Day Weather Forecast

Advertisements
Track Severe Weather on mobile